Create Custom Reports and Graphics: Custom Report

North/Central Map

Map

15 Minute Data

South County Map

Map

15 Minute Data

Northern Sonoma County Latest

25 Stations

15 Minute Data | America/Los_Angeles
as of 5/8/26 5:03 AM PDT
Station Date Time Temp (°F) RH (%) Dew Pt (°F) Wind Spd (mph) Wind Dir (°) Wind Gust (mph) Latest Rain (In) Daily Rain (In) Daily Max Temp (°F) Daily Min Temp (°F)
Bavarian Lion EFW 5/8/26 0500 52.0   0.4 - - - - - 0.00 0.00 52.4   0.0 51.7   1.8
Rockpile Lower (Cooley) 5/8/26 0445 47.0   1.6 94   4 45.3   2.8 4.4   3.5 NW | 313 7.5   5.4 0.00 0.00 52.2   1.2 46.7   1.5
Rockpile Upper (Cooley) 5/8/26 0500 44.0   1.0 100   0 43.9   1.0 9.8   6.6 NW | 325 15.3   9.6 0.00 0.00 49.9   4.3 43.6   1.1
Lower Dry Creek Valley 5/8/26 0500 52.5   0.5 93   7 50.6   1.4 0.9   0.9 WNW | 290 3.9   1.5 0.00 0.00 53.2   0.1 51.9   0.0
Geyserville-South (Nervo Station) 5/8/26 0500 50.6   1.2 - - 0.5   0.4 WNW | 296 2.7   0.7 0.00 0.00 52.4   0.6 50.3   1.1
Franz Valley (Stornetta) 5/8/26 0500 51.5   0.4 96   1 50.4   0.1 1.1   0.9 NW | 305 2.7   1.5 0.00 0.00 51.6   0.4 51.0   2.5
Geyserville (Ranch 3) 5/8/26 0500 49.4   3.8 100   0 49.4   3.8 1.8   0.6 NW | 313 4.0   1.0 0.00 0.00 53.7   0.3 49.2   3.8
Geyserville-North (Hoffman) 5/8/26 0500 48.0   5.2 94   0 46.3   5.1 1.0   0.5 NW | 311 2.0   0.4 0.00 0.00 53.6   0.7 47.9   5.3
Knights Valley (Bavarian Lion) 5/8/26 0500 51.5   0.6 96   1 50.5   0.3 1.8   0.4 NNE | 26 3.6   1.1 0.00 0.00 51.6   0.0 51.0   1.9
HWY 128/Chalk Hill Rd (Landslide) 5/8/26 0500 52.8   0.8 96   0 51.7   0.8 0.6   0.8 SSW | 211 1.8   1.9 0.00 0.00 53.2   0.2 52.5   0.6
Newman Knights Valley 5/8/26 0500 52.7   0.7 88   0 49.2   0.7 0.2   0.8 ENE | 57 1.4   2.0 0.00 0.00 52.9   0.4 52.4   0.5
Jimtown-North (Piccolo Ranch 15) 5/8/26 0500 52.5   0.0 100   0 52.4   0.1 1.8   0.5 WSW | 238 3.7   0.2 0.00 0.00 54.0   0.6 52.2   0.0
Peterson (Ranch 09) 5/8/26 0500 51.8   0.3 87   5 48.1   1.9 2.7   0.4 WNW | 288 4.3   0.4 0.00 0.00 52.9   0.3 51.7   0.3
Cloverdale-SE (Ranch 38) 5/8/26 0500 49.1   2.3 98   0 48.6   2.4 2.3   0.8 NNW | 347 3.9   0.9 0.00 0.00 51.9   0.0 48.9   2.2
Geyserville-East (Ranch 40) 5/8/26 0500 49.6   0.9 100   0 49.5   0.9 2.1   1.3 NW | 309 4.5   1.0 0.00 0.00 51.5   0.2 49.3   1.1
N Chalk Hill Rd (Ranch 63) 5/8/26 0500 50.8   1.0 93   2 48.8   0.3 1.2   0.7 WNW | 282 3.1   1.4 0.00 0.00 51.4   0.1 50.6   0.9
Cloverdale-East (Ranch 83) 5/8/26 0500 48.1   4.7 - - 0.3   1.3 NE | 55 1.6   2.6 0.00 0.00 52.6   1.0 47.6   4.9
Crazy Creek Ranch 5/8/26 0500 52.9   0.1 96   1 51.9   0.0 2.0   0.0 W | 273 3.7   0.2 0.00 0.00 53.8   0.0 52.8   0.2
Lytton East (Hill 5) 5/8/26 0500 49.2   2.0 95   1 48.0   2.4 3.4   2.1 NW | 306 5.2   1.9 0.00 0.00 51.7   0.5 48.6   2.6
Lytton East (Shop Hill Bottom) 5/8/26 0500 48.7   2.6 94   2 47.1   3.0 2.1   1.6 NW | 304 3.2   1.5 0.00 0.00 52.0   0.4 48.4   2.9
Lytton West Hill (23PS) 5/8/26 0500 52.3   0.4 93   5 50.3   1.0 1.6   0.3 WNW | 290 3.5   0.4 0.00 0.00 52.6   0.1 51.7   0.1
Lytton West Lower (Lew 6) 5/8/26 0500 51.4   0.0 93   7 49.4   2.1 1.9   0.2 W | 275 3.6   0.4 0.00 0.00 52.4   0.3 51.3   0.0
Whitton Ranch (201e) 5/8/26 0500 50.6   1.5 94   2 48.9   2.2 1.9   1.5 WNW | 292 3.4   1.0 0.00 0.00 52.8   0.6 50.3   1.6
Upper Dry Creek Valley 5/8/26 0500 50.6   1.3 94   1 49.0   1.7 0.9   0.7 N | 10 2.2   1.1 0.00 0.00 52.8   0.1 50.4   1.5
Big River 5/8/26 0500 52.5   0.6 94   4 50.7   0.6 1.8   0.7 NW | 308 4.6   1.8 0.00 0.00 52.6   0.4 52.1   0.2
Max     52.9 100 52.4 9.8 - 15.3 0.00 0.00 54.0 52.8
Avg     50.5 95 49.1 2.0 - 4.0 0.00 - - -
Min     44.0 87 43.9 0.2 - 1.4 0.00 0.00 49.9 43.6

Central Sonoma County Latest

37 Stations

15 Minute Data | America/Los_Angeles
as of 5/8/26 5:03 AM PDT
Station Date Time Temp (°F) RH (%) Dew Pt (°F) Wind Spd (mph) Wind Dir (°) Wind Gust (mph) Latest Rain (In) Daily Rain (In) Daily Max Temp (°F) Daily Min Temp (°F)
Windsor-NW (Ranch 8) 5/8/26 0500 52.2   0.2 86   2 48.0   0.4 0.8   0.0 WSW | 252 2.6   0.0 0.00 0.00 52.5   0.5 51.8   0.4
Windsor-East (Ranch 16) 5/8/26 0500 52.3   0.3 94   0 50.8   0.4 0.3   1.1 SW | 224 2.0   0.7 0.00 0.00 52.9   0.4 52.0   0.1
Mark West-North (Ranch 14) 5/8/26 0500 52.0   0.4 95   2 50.7   0.1 0.4   0.6 NW | 315 1.4   1.8 0.00 0.00 52.8   0.5 51.8   0.4
Windsor-SE (Silk Rd) 5/8/26 0500 52.2   0.2 98   3 51.8   0.5 0.5   0.9 ESE | 121 2.5   0.3 0.00 0.00 52.5   0.5 51.6   0.7
Fulton-NW (Ranch 5) 5/8/26 0500 51.8   0.6 96   2 50.7   0.1 1.4   0.1 SE | 143 2.5   0.5 0.00 0.00 52.9   0.5 51.6   0.7
Bisordi (Fulton) 5/8/26 0500 52.0   0.6 94   2 50.4   0.2 0.7   0.1 S | 185 2.1   0.1 0.00 0.00 53.0   0.5 51.9   0.7
Windsor-South (Laughlin Rd) 5/8/26 0500 51.7 94 49.9 - - - 0.00 0.00 52.6 51.4
Fulton-SE (Barnes Rd) 5/8/26 0500 52.4   0.1 93   0 50.3   0.0 0.1   1.6 S | 174 1.5   2.8 0.00 0.00 53.5   0.4 52.3   0.1
Fulton-SW (Ranch 21) 5/8/26 0500 51.2   0.4 0   95 -61.0   111.2 1.6   0.1 SSE | 164 3.2   1.0 0.00 0.00 52.2   0.2 51.1   0.4
NW Santa Rosa (Piner Road) 5/8/26 0500 51.3   0.4 100   0 51.3   0.4 0.8   0.6 S | 190 2.7   1.2 0.00 0.00 52.2   0.5 51.2   0.5
River Rd South (Denner Ranch) 5/8/26 0500 51.2   0.6 0   0 -67.0   0.4 2.4   1.2 ESE | 108 3.9   0.4 - - 51.8   0.7 50.9   0.4
West Santa Rosa (LOV Vineyard) 5/8/26 0500 51.2   0.7 97   1 50.3   0.3 0.2   0.2 S | 175 1.6   0.0 0.00 0.00 51.9   0.9 51.1   0.5
Guerneville Rd (Prokopakis) 5/8/26 0500 51.6   0.6 98   2 51.0   0.2 - - - 0.00 0.00 52.3   0.9 51.5   0.3
SunnyView Vineyard (SCWC) 5/8/26 0500 51.1   0.4 96   1 50.0   0.1 0.5   0.2 SSE | 161 2.6   0.9 0.00 0.00 52.0   0.5 50.9   0.5
Guerneville Rd West (Balletto) 5/8/26 0500 51.6   0.4 99   1 51.3   0.1 1.0   0.2 SE | 129 3.0   0.4 0.00 0.00 52.3   0.7 51.3   0.5
Sanchietti Ranch 5/8/26 0500 52.2   0.6 96   1 51.2   0.3 0.9   0.2 ESE | 117 2.1   1.6 0.00 0.00 53.2   0.8 51.9   0.8
Occidental Rd (Sebastopol) 5/8/26 0500 50.9   0.8 100   0 50.9   0.8 0.9   0.2 ESE | 102 2.6   0.2 0.00 0.00 51.8   0.5 50.7   0.7
Harper's Rest (Windsor-West) 5/8/26 0500 51.0   0.1 96   1 50.0   0.5 0.6   0.9 WNW | 299 2.0   2.1 0.00 0.00 51.0   0.4 50.4   0.3
Lower Westside Rd (Ranch 12) 5/8/26 0500 52.2   0.1 98   3 51.6   0.9 0.8   0.6 WSW | 252 2.3   0.5 0.00 0.00 52.5   0.2 51.5   0.4
Guerneville (Laughlin Rd) 5/8/26 0500 51.5   0.3 96   3 50.4   0.5 0.2   1.3 NNW | 335 0.9   2.3 0.00 0.00 51.8   1.5 50.8   0.9
Korbel (Winery) 5/8/26 0500 52.4   0.1 96   3 51.4   0.9 0.0   0.0 N | 0 0.0   0.0 0.00 0.00 52.9   0.7 51.7   0.5
Forestville (Shone Farms) 5/8/26 0500 52.0   0.4 97   1 51.2   0.6 1.1   0.3 NNW | 344 3.5   0.9 0.00 0.00 53.9   0.6 50.2   0.2
Forestville-NE (Ranch 30) 5/8/26 0500 51.2   0.0 98   0 50.7   0.2 0.3   0.2 SW | 224 1.3   0.7 0.00 0.00 51.4   0.3 50.8   0.1
Foggy Bend (Ranch 41) 5/8/26 0500 52.5   0.1 96   1 51.4   0.4 2.0   0.1 NE | 40 3.6   1.2 0.00 0.00 52.6   0.5 52.0   0.2
Last Stop 5/8/26 0500 51.6   0.0 97   1 50.8   0.2 1.2   0.5 ENE | 70 3.9   1.8 0.00 0.00 51.8   0.4 51.3   0.2
Green Valley Vineyard 5/8/26 0500 50.8   0.2 98   0 50.4   0.0 1.2   0.3 ENE | 57 3.3   0.0 0.00 0.00 51.2   0.3 50.2   0.3
Park Royal 5/8/26 0500 50.9   0.6 99   2 50.6   0.2 - - - 0.00 0.00 52.2   0.4 50.6   0.8
Merino 5/8/26 0500 51.3   0.5 100   1 51.4   0.2 1.2   0.0 ESE | 115 2.5   1.0 0.00 0.00 52.1   0.7 51.0   0.8
Green Valley (Sanchietti) 5/8/26 0500 51.9   0.4 - - - - - - - 52.5   0.2 51.7   1.3
Keefer Ranch (Green Valley) 5/8/26 0500 51.6   0.4 97   0 50.7   0.3 - - - 0.00 0.00 52.0   0.2 51.4   0.1
Graton-West (Dutton Ranch) 5/8/26 0500 51.8   0.2 100   0 51.8   0.2 2.7   1.7 N | 356 5.4   1.1 0.00 0.00 52.2   0.4 51.4   0.1
Graton-South (Mill Station Rd) 5/8/26 0500 51.0   0.1 99   1 50.6   0.0 0.0   0.0 N | 0 0.0   1.4 0.00 0.00 51.4   0.3 50.3   0.4
Occidental (Horseshoe Bend) 5/8/26 0500 49.6   0.2 100   0 49.6   0.2 - - - 0.00 0.00 49.8   0.1 48.6   0.7
Sexton Valley (Jacqueline's Blk) 5/8/26 0500 51.2   0.0 98   0 50.7   0.1 1.8   1.5 ESE | 121 4.4   2.6 0.00 0.00 51.7   0.3 50.8   0.2
Sebastopol Hills (Burnside Rd) 5/8/26 0500 50.0   0.2 100   0 50.0   0.2 0.0   0.3 NNE | 21 0.7   1.4 0.00 0.00 50.4   0.2 49.3   0.2
Pleasant Hill 5/8/26 0500 49.8   0.8 97   0 49.1   0.8 1.7   0.2 ENE | 65 3.5   0.8 0.00 0.01 50.6   0.6 49.7   0.6
Seaview/Fort Ross (Hirsch) 5/8/26 0500 45.4   3.5 97   0 44.6   3.5 2.1   1.2 NNW | 348 4.9   2.2 0.00 0.00 55.9   0.6 44.7   2.5
Max     52.5 100 51.8 2.7 - 5.4 0.00 0.01 55.9 52.3
Avg     51.3 92 44.1 0.9 - 2.5 0.00 - - -
Min     45.4 0 -67.0 0.0 - 0.0 0.00 0.00 49.8 44.7

Southern Sonoma County Latest

20 Stations

15 Minute Data
as of 5/8/26 5:03 AM PDT
Station Date Time Temp (°F) RH (%) Dew Pt (°F) Wind Spd (mph) Wind Dir (°) Wind Gust (mph) Latest Rain (In) Daily Rain (In) Daily Min Temp (°F) Daily Max Temp (°F)
Upper Rincon Valley 5/8/26 0500 49.1   0.1 98   0 48.7   0.0 0.9   0.1 SW | 216 2.5   0.4 0.00 0.00 48.0   0.9 49.4   0.5
Lower Bennett Valley 5/8/26 0500 50.0   0.4 100   0 50.0   0.4 1.2   0.9 N | 354 2.4   2.4 0.00 0.00 49.6   0.7 50.7   0.6
Kenwood (Wildwood) 5/8/26 0500 50.6   0.2 100   0 50.6   0.2 2.8   0.0 NNW | 342 5.8   0.6 0.00 0.00 50.3   2.5 51.9   0.4
Crane Creek (Ranch 62) 5/8/26 0500 50.5   0.8 98   1 50.1   0.5 0.5   0.8 S | 178 2.1   2.6 0.00 0.00 50.4   0.8 51.2   1.2
Rohnert Park-West (Stony Point) 5/8/26 0500 50.7   1.1 97   0 49.8   1.0 0.7   1.4 SW | 228 3.0   1.9 0.00 0.00 50.7   1.1 52.1   0.9
Rice-Spivak Vineyard 5/8/26 0500 50.0   1.6 - - - - - - - 49.9   1.6 51.3   1.0
Cartograph Wines Base 5/8/26 0500 49.6   1.4 99   1 49.2   1.2 0.9   0.5 SSE | 147 3.0   1.3 0.00 0.00 49.3   1.6 50.9   1.0
Cartograph Wines Remote 5/8/26 0500 50.0   1.6 - - - - - - - 50.0   1.6 51.6   1.1
Penngrove (Asellus) 5/8/26 0500 50.1   1.6 95   2 48.8   1.1 1.4   0.7 SSE | 162 3.2   0.5 0.00 0.00 50.0   1.6 51.8   1.1
Sonoma Valley (Bedrock) 5/8/26 0500 50.0   0.8 95   1 48.7   0.5 - - - 0.00 0.00 49.8   1.8 51.3   0.4
Sonoma-West (Arnold) 5/8/26 0500 52.1   0.1 93   1 50.1   0.5 0.7   1.3 WNW | 288 2.2   4.2 0.00 0.01 51.7   3.0 52.6   0.3
Sonoma Valley HS 5/8/26 0500 51.9   0.5 99   0 51.7   0.5 1.1   0.1 W | 276 2.4   0.6 0.00 0.00 51.7   0.3 53.0   0.4
Sonoma East (Bundschu01) 5/8/26 0500 52.2   0.4 92   0 50.1   0.6 2.2   0.4 W | 260 5.3   1.8 0.00 0.00 52.1   1.2 53.0   0.1
Sonoma-SE (Napoli) 5/8/26 0500 52.0   0.7 92   1 49.8   0.8 2.5   0.9 WSW | 255 5.1   0.0 0.00 0.00 51.7   0.2 52.7   0.4
Schellville (Sasaki) 2/7/26 1900 53.4   2.2 88   10 49.9   1.0 3.3   1.8 SW | 225 5.8   4.0 0.00 0.00 47.0   0.8 62.8   8.4
Petaluma (Ranch 10) 5/8/26 0500 51.6   1.0 90   1 48.8   1.4 4.3   0.4 WNW | 284 7.1   0.5 0.00 0.00 51.6   1.0 53.0   0.9
Carneros (Ranch 71) 5/8/26 0500 50.9   0.4 95   1 49.5   0.8 4.8   1.6 W | 265 7.4   2.4 0.00 0.00 50.8   0.1 51.3   0.5
Ricci Vineyards (Carneros) 5/8/26 0500 51.7   0.7 92   1 49.4   1.1 5.0   0.3 W | 269 8.4   0.1 0.00 0.00 51.0   0.4 52.1   0.4
Carneros Upper (Ranch 81) 5/8/26 0500 50.9   0.4 1   0 -56.6   1.2 5.4   3.8 WSW | 256 8.8   4.7 - - 50.7   0.1 51.2   0.5
Carneros Lower (Ranch 81) 5/8/26 0500 52.2   0.2 92   5 49.9   1.3 0.1   1.5 SW | 231 3.7   0.4 0.00 0.00 52.0   0.8 52.4   0.3
Max     52.2 100 51.7 5.4 - 8.8 0.00 0.01 52.1 53.0
Avg     50.8 90 43.4 2.2 - 4.5 0.00 - - -
Min     49.1 1 -56.6 0.1 - 2.1 0.00 0.00 48.0 49.4

AQI Map

Map

Hourly Data